Time;durP1;ratioP1;P1;durP2;ratioP2;P2;SDS_P1;SDS_P2;PMS_P1;PMS_P2;Temp;Humidity;BMP_temperature;BMP_pressure;BME280_temperature;BME280_humidity;BME280_pressure;Samples;Min_cycle;Max_cycle;Signal;HPM_P1;HPM_P2
2023/10/08 00:01:06;;;;;;;9.00;5.40;;;17.70;99.90;;;;;;6310292;22;20421;-41
2023/10/08 00:03:33;;;;;;;8.67;5.67;;;17.70;99.90;;;;;;6284166;22;20381;-39
2023/10/08 00:06:06;;;;;;;5.80;4.63;;;17.70;99.90;;;;;;6310209;22;20355;-39
2023/10/08 00:08:35;;;;;;;5.57;4.33;;;17.60;99.90;;;;;;6309981;22;20378;-38
2023/10/08 00:11:06;;;;;;;5.60;4.43;;;17.60;99.90;;;;;;6308777;22;20386;-39
2023/10/08 00:13:39;;;;;;;7.10;4.87;;;17.60;99.90;;;;;;6308945;22;20426;-38
2023/10/08 00:16:15;;;;;;;7.20;5.60;;;17.60;99.90;;;;;;6309029;22;20446;-39
2023/10/08 00:18:48;;;;;;;7.60;5.10;;;17.60;99.90;;;;;;6307746;22;20903;-39
2023/10/08 00:23:42;;;;;;;6.80;4.43;;;17.60;99.90;;;;;;6318378;22;20436;-39
2023/10/08 00:26:08;;;;;;;7.13;4.70;;;17.60;99.90;;;;;;6280644;22;20421;-41
2023/10/08 00:28:34;;;;;;;5.63;4.07;;;17.50;99.90;;;;;;6308305;22;20393;-41
2023/10/08 00:31:12;;;;;;;5.90;4.00;;;17.60;99.90;;;;;;6306190;22;20642;-40
2023/10/08 00:33:44;;;;;;;4.83;3.83;;;17.60;99.90;;;;;;6306890;22;20218;-39
2023/10/08 00:36:20;;;;;;;6.40;3.87;;;17.60;99.90;;;;;;6305801;22;20378;-41
2023/10/08 00:38:52;;;;;;;6.23;4.20;;;17.60;99.90;;;;;;6279828;22;20832;-38
2023/10/08 00:41:21;;;;;;;5.00;4.20;;;17.60;99.90;;;;;;6306431;22;20351;-39
2023/10/08 00:43:48;;;;;;;5.70;4.10;;;17.70;99.90;;;;;;6306887;22;20843;-39
2023/10/08 00:46:23;;;;;;;6.40;4.17;;;17.60;99.90;;;;;;6307523;22;20418;-41
2023/10/08 00:48:55;;;;;;;7.40;3.73;;;17.60;99.90;;;;;;6280397;22;20381;-39
2023/10/08 00:54:17;;;;;;;6.83;4.63;;;17.60;99.90;;;;;;6309193;22;20425;-38
2023/10/08 00:56:49;;;;;;;5.60;4.37;;;17.60;99.90;;;;;;6308682;22;20357;-38
2023/10/08 00:59:15;;;;;;;4.63;3.40;;;17.60;99.90;;;;;;6308866;22;20354;-39
2023/10/08 01:01:51;;;;;;;6.70;4.27;;;17.60;99.90;;;;;;6307888;22;20420;-39
2023/10/08 01:04:22;;;;;;;5.90;4.40;;;17.60;99.90;;;;;;6308135;22;20634;-37
2023/10/08 01:06:59;;;;;;;6.20;4.90;;;17.60;99.90;;;;;;6308014;22;20397;-39
2023/10/08 01:09:34;;;;;;;6.70;4.30;;;17.60;99.90;;;;;;6306319;22;20401;-38
2023/10/08 01:12:27;;;;;;;5.30;4.57;;;17.60;99.90;;;;;;6306987;22;20661;-39
2023/10/08 01:14:54;;;;;;;6.60;4.50;;;17.60;99.90;;;;;;6307540;22;20399;-40
2023/10/08 01:17:25;;;;;;;7.93;4.20;;;17.60;99.90;;;;;;6306814;22;20420;-41
2023/10/08 01:20:53;;;;;;;6.47;4.30;;;17.60;99.90;;;;;;6305815;22;20432;-38
2023/10/08 01:22:47;;;;;;;7.17;4.90;;;17.60;99.90;;;;;;6280160;22;20667;-39
2023/10/08 01:25:21;;;;;;;8.07;4.60;;;17.60;99.90;;;;;;6308103;22;20428;-38
2023/10/08 01:27:47;;;;;;;5.60;4.40;;;17.60;99.90;;;;;;6308516;22;20223;-41
2023/10/08 01:30:17;;;;;;;5.67;4.43;;;17.60;99.90;;;;;;6307782;22;20741;-39
2023/10/08 01:32:44;;;;;;;6.90;4.63;;;17.60;99.90;;;;;;6307848;22;20223;-38
2023/10/08 01:35:22;;;;;;;6.60;4.93;;;17.60;99.90;;;;;;6306453;22;20558;-39
2023/10/08 01:37:52;;;;;;;6.57;4.23;;;17.60;99.90;;;;;;6308238;22;20382;-40
2023/10/08 01:40:18;;;;;;;6.73;4.80;;;17.60;99.90;;;;;;6308659;22;20538;-39
2023/10/08 01:42:44;;;;;;;7.33;4.00;;;17.50;99.90;;;;;;6308639;22;20753;-39
2023/10/08 01:45:13;;;;;;;6.73;4.20;;;17.50;99.90;;;;;;6308445;22;20395;-41
2023/10/08 01:47:38;;;;;;;8.10;4.70;;;17.50;99.90;;;;;;6307863;22;20166;-38
2023/10/08 01:50:08;;;;;;;6.23;4.40;;;17.50;99.90;;;;;;6280337;22;20797;-38
2023/10/08 01:52:34;;;;;;;6.07;4.20;;;17.50;99.90;;;;;;6307918;22;20301;-39
2023/10/08 01:55:00;;;;;;;6.80;4.30;;;17.50;99.90;;;;;;6308023;22;20703;-40
2023/10/08 01:57:25;;;;;;;7.80;3.93;;;17.50;99.90;;;;;;6307958;22;20382;-38
2023/10/08 01:59:51;;;;;;;11.70;4.43;;;17.50;99.90;;;;;;6306402;22;20430;-41
2023/10/08 02:02:17;;;;;;;6.53;3.70;;;17.50;99.90;;;;;;6306329;22;20175;-40
2023/10/08 02:04:43;;;;;;;5.93;4.03;;;17.50;99.90;;;;;;6307741;22;20167;-41
2023/10/08 02:07:12;;;;;;;7.63;3.60;;;17.50;99.90;;;;;;6307448;22;20400;-40
2023/10/08 02:09:41;;;;;;;6.40;3.67;;;17.50;99.90;;;;;;6307044;22;20623;-39
2023/10/08 02:12:08;;;;;;;4.37;3.70;;;17.50;99.90;;;;;;6307344;22;20417;-41
2023/10/08 02:14:35;;;;;;;4.70;3.93;;;17.40;99.90;;;;;;6282155;22;20416;-39
2023/10/08 02:17:05;;;;;;;6.63;4.00;;;17.40;99.90;;;;;;6307344;22;20638;-41
2023/10/08 02:19:32;;;;;;;9.40;4.57;;;17.40;99.90;;;;;;6306691;22;20422;-41
2023/10/08 02:21:58;;;;;;;5.50;3.90;;;17.40;99.90;;;;;;6307945;22;20378;-38
2023/10/08 02:24:24;;;;;;;6.43;4.17;;;17.40;99.90;;;;;;6308222;22;20501;-43
2023/10/08 02:26:54;;;;;;;5.90;4.20;;;17.40;99.90;;;;;;6307838;22;20362;-40
2023/10/08 02:29:22;;;;;;;5.57;3.93;;;17.40;99.90;;;;;;6307848;22;20355;-40
2023/10/08 02:31:48;;;;;;;7.53;3.37;;;17.40;99.90;;;;;;6307382;22;20385;-41
2023/10/08 02:34:15;;;;;;;6.70;4.67;;;17.40;99.90;;;;;;6306942;22;20701;-38
2023/10/08 02:36:41;;;;;;;4.43;3.60;;;17.40;99.90;;;;;;6278577;22;20148;-38
2023/10/08 02:39:21;;;;;;;6.93;3.80;;;17.40;99.90;;;;;;6305504;22;20382;-41
2023/10/08 02:41:47;;;;;;;5.90;3.53;;;17.30;99.90;;;;;;6305780;22;20616;-39
2023/10/08 02:44:14;;;;;;;5.77;4.10;;;17.30;99.90;;;;;;6305577;22;20358;-38
2023/10/08 02:46:48;;;;;;;8.80;4.63;;;17.30;99.90;;;;;;6305423;22;20397;-40
2023/10/08 02:49:20;;;;;;;8.53;4.80;;;17.30;99.90;;;;;;6303832;22;20681;-40
2023/10/08 02:51:49;;;;;;;5.57;3.80;;;17.20;99.90;;;;;;6305582;22;20413;-38
2023/10/08 02:54:22;;;;;;;5.43;3.90;;;17.10;99.90;;;;;;6279374;22;20437;-40
2023/10/08 02:56:56;;;;;;;9.97;4.00;;;17.00;99.90;;;;;;6305837;22;20350;-41
2023/10/08 02:59:22;;;;;;;6.33;5.07;;;16.80;99.90;;;;;;6280971;22;20342;-40
2023/10/08 03:01:57;;;;;;;7.23;4.23;;;16.70;99.90;;;;;;6306471;22;20792;-40
2023/10/08 03:04:22;;;;;;;7.27;3.83;;;16.60;99.90;;;;;;6307468;22;20241;-41
2023/10/08 03:06:52;;;;;;;6.40;3.87;;;16.50;99.90;;;;;;6307818;22;20439;-39
2023/10/08 03:09:24;;;;;;;5.80;3.80;;;16.40;99.90;;;;;;6307168;22;20382;-39
2023/10/08 03:11:50;;;;;;;6.63;3.33;;;16.30;99.90;;;;;;6308068;22;20429;-37
2023/10/08 03:14:23;;;;;;;5.93;3.30;;;16.20;99.90;;;;;;6307803;22;20701;-38
2023/10/08 03:16:53;;;;;;;5.67;3.83;;;16.10;99.90;;;;;;6309253;22;20455;-41
2023/10/08 03:19:21;;;;;;;8.63;5.07;;;16.00;99.90;;;;;;6277711;22;20426;-39
2023/10/08 03:21:56;;;;;;;8.80;4.50;;;16.00;99.90;;;;;;6279358;22;20387;-41
2023/10/08 03:27:07;;;;;;;5.97;3.50;;;15.80;99.90;;;;;;6275451;22;20363;-40
2023/10/08 03:29:40;;;;;;;5.20;3.70;;;15.80;99.90;;;;;;6273602;22;20363;-39
2023/10/08 03:32:06;;;;;;;8.40;3.93;;;15.70;99.90;;;;;;6275727;22;20378;-37
2023/10/08 03:34:34;;;;;;;6.10;3.80;;;15.70;99.90;;;;;;6274227;22;20433;-38
2023/10/08 03:37:05;;;;;;;7.20;4.37;;;15.60;99.90;;;;;;6274497;22;20386;-40
2023/10/08 03:42:20;;;;;;;6.50;3.60;;;15.60;99.90;;;;;;6273018;22;20452;-39
2023/10/08 03:44:50;;;;;;;5.90;4.27;;;15.50;99.90;;;;;;6274777;22;20477;-40
2023/10/08 03:47:18;;;;;;;8.10;4.07;;;15.50;1.00;;;;;;6275170;22;20627;-40
2023/10/08 03:49:46;;;;;;;6.93;4.27;;;15.50;99.90;;;;;;6276231;22;20679;-40
2023/10/08 03:52:12;;;;;;;5.73;4.00;;;15.40;99.90;;;;;;6276597;22;20661;-38
2023/10/08 03:54:43;;;;;;;7.57;4.40;;;15.40;99.90;;;;;;6275981;22;20453;-38
2023/10/08 03:57:25;;;;;;;5.83;3.63;;;15.40;99.90;;;;;;6277357;22;20857;-39
2023/10/08 03:59:55;;;;;;;6.90;4.23;;;15.30;99.90;;;;;;6277568;22;20662;-40
2023/10/08 04:02:39;;;;;;;6.10;3.90;;;15.30;99.90;;;;;;6277098;22;20462;-37
2023/10/08 04:05:18;;;;;;;5.90;3.37;;;15.30;99.90;;;;;;6278395;22;20383;-39
2023/10/08 04:13:09;;;;;;;4.20;3.60;;;15.20;99.90;;;;;;6276922;22;20721;-38
2023/10/08 04:15:41;;;;;;;8.37;4.27;;;15.20;99.90;;;;;;6277882;22;20399;-40
2023/10/08 04:18:10;;;;;;;7.50;3.77;;;15.20;99.90;;;;;;6281827;22;20398;-37
2023/10/08 04:20:39;;;;;;;4.97;3.60;;;15.20;99.90;;;;;;6308849;22;20366;-38
2023/10/08 04:23:20;;;;;;;7.43;3.57;;;15.20;99.90;;;;;;6308767;22;20386;-39
2023/10/08 04:25:53;;;;;;;8.10;3.53;;;15.20;99.90;;;;;;6284999;22;20382;-39
2023/10/08 04:28:20;;;;;;;4.83;3.40;;;15.10;99.90;;;;;;6307497;22;20535;-37
2023/10/08 04:30:47;;;;;;;6.07;3.93;;;15.10;99.90;;;;;;6305066;22;20802;-42
2023/10/08 04:33:14;;;;;;;5.77;3.97;;;15.10;99.90;;;;;;6307450;22;20804;-39
2023/10/08 04:35:48;;;;;;;7.30;3.73;;;15.10;99.90;;;;;;6308164;22;20365;-39
2023/10/08 04:38:21;;;;;;;4.90;3.37;;;15.10;99.90;;;;;;6307744;22;20784;-38
2023/10/08 04:40:48;;;;;;;4.47;3.00;;;15.10;99.90;;;;;;6307195;22;20390;-38
2023/10/08 04:43:27;;;;;;;5.77;3.87;;;15.00;99.90;;;;;;6308262;22;20394;-39
2023/10/08 04:48:55;;;;;;;6.60;3.97;;;15.10;99.90;;;;;;6307070;22;20389;-41
2023/10/08 04:51:22;;;;;;;5.73;3.63;;;15.10;99.90;;;;;;6306361;22;20422;-40
2023/10/08 04:53:48;;;;;;;5.40;3.03;;;15.10;99.90;;;;;;6306411;22;20772;-38
2023/10/08 04:56:17;;;;;;;5.73;3.80;;;15.10;99.90;;;;;;6308897;22;20359;-39
2023/10/08 04:58:47;;;;;;;5.40;3.63;;;15.10;99.90;;;;;;6308760;22;20148;-39
2023/10/08 05:01:17;;;;;;;4.80;3.93;;;15.10;99.90;;;;;;6308653;22;20442;-38
2023/10/08 05:09:23;;;;;;;7.63;4.17;;;15.10;1.00;;;;;;6306261;22;20359;-41
2023/10/08 05:14:34;;;;;;;6.53;3.90;;;15.20;1.00;;;;;;6305792;22;20655;-37
2023/10/08 05:17:09;;;;;;;5.60;3.93;;;15.20;1.00;;;;;;6306805;22;20386;-38
2023/10/08 05:25:24;;;;;;;7.30;3.63;;;15.20;1.00;;;;;;6274501;22;20405;-39
2023/10/08 05:30:38;;;;;;;7.50;3.97;;;15.20;1.00;;;;;;6275706;22;20505;-38
2023/10/08 05:36:09;;;;;;;6.70;4.90;;;15.10;1.00;;;;;;6194355;22;20398;-38
2023/10/08 05:49:26;;;;;;;5.90;4.43;;;15.10;1.00;;;;;;6277363;22;20452;-39
2023/10/08 06:07:56;;;;;;;5.43;4.00;;;15.10;1.00;;;;;;6275114;22;20508;-38
2023/10/08 06:13:06;;;;;;;8.43;4.70;;;15.20;1.00;;;;;;6277741;22;20460;-39
2023/10/08 06:18:13;;;;;;;6.37;4.53;;;15.30;1.00;;;;;;6281821;22;20468;-38
2023/10/08 06:20:42;;;;;;;7.27;4.67;;;15.30;1.00;;;;;;6307003;22;20350;-38
2023/10/08 06:23:20;;;;;;;6.30;4.23;;;15.40;1.00;;;;;;6306482;22;20365;-41
2023/10/08 06:25:56;;;;;;;7.20;4.00;;;15.40;1.00;;;;;;6307642;22;20382;-40
2023/10/08 06:28:25;;;;;;;6.37;4.57;;;15.50;1.00;;;;;;6305150;22;20430;-40
2023/10/08 06:30:58;;;;;;;6.77;4.27;;;15.60;1.00;;;;;;6307579;22;20382;-39
2023/10/08 06:33:26;;;;;;;5.53;3.87;;;15.70;1.00;;;;;;6307285;22;20382;-39
2023/10/08 06:36:02;;;;;;;6.23;4.10;;;15.80;1.00;;;;;;6306904;22;20346;-41
2023/10/08 06:38:32;;;;;;;5.40;3.77;;;15.90;1.00;;;;;;6281471;22;20377;-39
2023/10/08 06:41:10;;;;;;;6.57;3.67;;;16.00;1.00;;;;;;6307228;22;20382;-39
2023/10/08 06:43:36;;;;;;;6.33;4.00;;;16.00;1.00;;;;;;6283488;22;20381;-38
2023/10/08 06:46:03;;;;;;;5.20;4.27;;;16.10;1.00;;;;;;6309541;22;20386;-41
2023/10/08 06:48:29;;;;;;;6.73;4.17;;;16.20;1.00;;;;;;6282444;22;20412;-41
2023/10/08 06:50:56;;;;;;;8.20;4.70;;;16.20;1.00;;;;;;6306185;22;20828;-38
2023/10/08 06:53:22;;;;;;;8.03;4.37;;;16.20;1.00;;;;;;6305900;22;20386;-40
2023/10/08 06:55:54;;;;;;;9.40;4.37;;;16.30;1.00;;;;;;6276821;22;20541;-39
2023/10/08 06:58:20;;;;;;;5.80;4.03;;;16.40;1.00;;;;;;6253037;22;20461;-40
2023/10/08 07:00:48;;;;;;;5.90;4.07;;;16.70;1.00;;;;;;6304187;22;20390;-38
2023/10/08 07:03:17;;;;;;;7.50;4.27;;;16.90;1.00;;;;;;6278242;22;20436;-39
2023/10/08 07:06:02;;;;;;;6.40;3.90;;;17.20;1.00;;;;;;6279308;22;20354;-39
2023/10/08 07:08:33;;;;;;;6.97;4.03;;;17.50;1.00;;;;;;6304466;22;20375;-42
2023/10/08 07:11:01;;;;;;;5.53;4.37;;;17.80;1.00;;;;;;6304573;22;20676;-42
2023/10/08 07:13:29;;;;;;;6.97;4.77;;;18.00;1.00;;;;;;6276824;22;20386;-39
2023/10/08 07:15:55;;;;;;;8.50;4.73;;;18.20;1.00;;;;;;6306258;22;20374;-39
2023/10/08 07:18:33;;;;;;;5.13;3.47;;;18.30;1.00;;;;;;6304693;22;20724;-41
2023/10/08 07:21:04;;;;;;;6.87;3.60;;;18.40;1.00;;;;;;6278760;22;20358;-40
2023/10/08 07:23:34;;;;;;;7.43;3.73;;;18.60;1.00;;;;;;6303590;22;20355;-38
2023/10/08 07:26:10;;;;;;;6.40;3.77;;;18.90;1.00;;;;;;6304737;22;20465;-39
2023/10/08 07:28:41;;;;;;;5.90;4.50;;;19.20;1.00;;;;;;6300733;22;20374;-39
2023/10/08 07:31:21;;;;;;;6.20;4.13;;;19.60;1.00;;;;;;6304215;22;20657;-42
2023/10/08 07:33:56;;;;;;;4.80;3.40;;;20.00;1.00;;;;;;6302353;22;20430;-41
2023/10/08 07:36:29;;;;;;;6.70;4.53;;;20.40;1.00;;;;;;6304922;22;20800;-39
2023/10/08 07:38:54;;;;;;;7.20;3.63;;;20.70;1.00;;;;;;6304440;22;20365;-39
2023/10/08 07:41:21;;;;;;;6.53;3.80;;;20.90;1.00;;;;;;6303362;22;20382;-41
2023/10/08 07:43:55;;;;;;;5.03;3.30;;;21.00;1.00;;;;;;6302399;22;20156;-39
2023/10/08 07:46:22;;;;;;;4.57;3.20;;;21.10;1.00;;;;;;6276063;22;20386;-40
2023/10/08 07:48:47;;;;;;;5.83;3.93;;;21.10;1.00;;;;;;6302011;22;20590;-39
2023/10/08 07:51:14;;;;;;;5.97;3.90;;;21.20;1.00;;;;;;6301910;22;20516;-39
2023/10/08 07:53:41;;;;;;;4.10;3.30;;;21.20;1.00;;;;;;6300847;22;20229;-39
2023/10/08 07:56:08;;;;;;;11.13;5.00;;;21.20;1.00;;;;;;6302140;22;20378;-43
2023/10/08 07:58:38;;;;;;;5.30;3.93;;;21.20;1.00;;;;;;6303195;22;20381;-40
2023/10/08 08:01:07;;;;;;;6.10;3.60;;;21.20;1.00;;;;;;6277986;22;20392;-42
2023/10/08 08:03:36;;;;;;;7.97;3.83;;;21.20;1.00;;;;;;6305982;22;20386;-43
2023/10/08 08:06:11;;;;;;;8.33;4.00;;;21.20;1.00;;;;;;6306070;22;20382;-43
2023/10/08 08:08:38;;;;;;;6.60;4.03;;;21.20;1.00;;;;;;6279811;22;20408;-41
2023/10/08 08:11:11;;;;;;;5.90;3.43;;;21.30;1.00;;;;;;6305265;22;20390;-44
2023/10/08 08:13:42;;;;;;;6.60;4.37;;;21.30;1.00;;;;;;6279669;22;20465;-41
2023/10/08 08:16:17;;;;;;;5.90;4.20;;;21.30;1.00;;;;;;6305223;22;20386;-43
2023/10/08 08:18:46;;;;;;;6.30;3.83;;;21.30;1.00;;;;;;6303156;22;20421;-40
2023/10/08 08:21:16;;;;;;;6.47;3.90;;;21.40;1.00;;;;;;6302079;22;20359;-43
2023/10/08 08:23:49;;;;;;;8.03;3.57;;;21.50;1.00;;;;;;6304855;22;20393;-40
2023/10/08 08:26:29;;;;;;;5.07;3.50;;;21.70;1.00;;;;;;6303884;22;20386;-40
2023/10/08 08:28:57;;;;;;;6.23;3.40;;;22.20;1.00;;;;;;6303557;22;20456;-40
2023/10/08 08:31:23;;;;;;;6.00;3.27;;;22.60;1.00;;;;;;6305353;22;20386;-42
2023/10/08 08:36:48;;;;;;;5.50;3.50;;;23.40;1.00;;;;;;6250792;22;20374;-40
2023/10/08 08:39:28;;;;;;;9.63;4.40;;;23.80;1.00;;;;;;6276255;22;20375;-41
2023/10/08 08:41:59;;;;;;;5.17;4.37;;;24.20;1.00;;;;;;6304451;22;20522;-41
2023/10/08 08:44:29;;;;;;;7.20;4.40;;;24.60;1.00;;;;;;6305508;22;20504;-41
2023/10/08 08:46:58;;;;;;;5.73;3.80;;;25.00;1.00;;;;;;6302670;22;20392;-42
2023/10/08 08:49:24;;;;;;;6.20;4.20;;;25.50;1.00;;;;;;6303796;22;20688;-42
2023/10/08 08:51:53;;;;;;;5.43;4.07;;;25.80;1.00;;;;;;6276271;22;21068;-41
2023/10/08 08:54:20;;;;;;;5.77;3.97;;;26.00;1.00;;;;;;6274846;22;20250;-43
2023/10/08 08:56:46;;;;;;;7.10;4.07;;;26.10;1.00;;;;;;6275146;22;20390;-42
2023/10/08 08:59:12;;;;;;;5.50;4.07;;;26.10;1.00;;;;;;6275181;22;20417;-41
2023/10/08 09:01:39;;;;;;;5.03;3.70;;;26.00;1.00;;;;;;6302630;22;20382;-41
2023/10/08 09:04:05;;;;;;;5.83;4.00;;;25.90;1.00;;;;;;6276213;22;20678;-42
2023/10/08 09:06:37;;;;;;;5.10;3.57;;;25.90;1.00;;;;;;6303677;22;20362;-43
2023/10/08 09:09:25;;;;;;;4.63;3.70;;;25.80;1.00;;;;;;6303997;22;20231;-44
2023/10/08 09:11:52;;;;;;;5.57;3.63;;;25.80;1.00;;;;;;6301210;22;20386;-42
2023/10/08 09:14:22;;;;;;;6.30;3.77;;;25.80;1.00;;;;;;6302506;22;20463;-42
2023/10/08 09:16:49;;;;;;;5.03;4.13;;;25.70;1.00;;;;;;6304326;22;20570;-41
2023/10/08 09:19:18;;;;;;;6.00;3.97;;;25.70;1.00;;;;;;6302945;22;20430;-41
2023/10/08 09:22:06;;;;;;;7.00;4.90;;;25.60;1.00;;;;;;6304507;22;20768;-42
2023/10/08 09:24:39;;;;;;;5.47;4.33;;;25.60;1.00;;;;;;6301957;22;20361;-42
2023/10/08 09:27:08;;;;;;;7.13;4.07;;;25.60;1.00;;;;;;6300297;22;20472;-42
2023/10/08 09:29:41;;;;;;;5.00;3.50;;;25.60;1.00;;;;;;6302116;22;20378;-42
2023/10/08 09:32:11;;;;;;;7.17;4.70;;;25.70;1.00;;;;;;6302646;22;20502;-43
2023/10/08 09:34:36;;;;;;;6.20;4.40;;;26.20;1.00;;;;;;6276952;22;20941;-43
2023/10/08 09:37:05;;;;;;;6.70;3.97;;;26.90;1.00;;;;;;6305300;22;20441;-42
2023/10/08 09:39:33;;;;;;;6.43;4.37;;;27.50;1.00;;;;;;6303554;22;20139;-45
2023/10/08 09:42:02;;;;;;;10.40;4.90;;;28.10;1.00;;;;;;6304537;22;20390;-44
2023/10/08 09:44:28;;;;;;;6.83;4.07;;;28.50;1.00;;;;;;6279019;22;20697;-41
2023/10/08 09:47:10;;;;;;;5.90;4.40;;;28.80;1.00;;;;;;6277498;22;20447;-44
2023/10/08 09:49:56;;;;;;;8.53;4.83;;;28.80;1.00;;;;;;6301137;22;20386;-41
2023/10/08 09:52:24;;;;;;;6.93;4.57;;;28.70;1.00;;;;;;6299471;22;20441;-43
2023/10/08 09:55:03;;;;;;;9.80;4.60;;;28.50;1.00;;;;;;6249623;22;20693;-42
2023/10/08 09:57:30;;;;;;;8.67;4.20;;;28.30;1.00;;;;;;6303422;22;20354;-43
2023/10/08 09:59:59;;;;;;;7.03;5.10;;;28.10;1.00;;;;;;6304304;22;20874;-42
2023/10/08 10:02:27;;;;;;;6.87;3.90;;;27.90;1.00;;;;;;6306538;22;20796;-42
2023/10/08 10:04:55;;;;;;;6.60;4.80;;;27.80;1.00;;;;;;6278453;22;20661;-42
2023/10/08 10:07:21;;;;;;;6.67;4.60;;;27.90;1.00;;;;;;6305528;22;20506;-42
2023/10/08 10:09:50;;;;;;;5.53;3.60;;;27.90;1.00;;;;;;6305819;22;20365;-41
2023/10/08 10:12:25;;;;;;;7.60;4.00;;;27.90;1.00;;;;;;6305116;22;20362;-42
2023/10/08 10:14:55;;;;;;;5.90;3.90;;;27.80;1.00;;;;;;6279507;22;20414;-43
2023/10/08 10:17:28;;;;;;;7.53;4.10;;;27.60;1.00;;;;;;6306186;22;20393;-44
2023/10/08 10:19:59;;;;;;;8.27;4.40;;;27.40;1.00;;;;;;6304602;22;20455;-44
2023/10/08 10:22:35;;;;;;;6.63;4.50;;;27.20;1.00;;;;;;6278028;22;20386;-42
2023/10/08 10:25:14;;;;;;;10.47;5.53;;;27.20;1.00;;;;;;6304375;22;20917;-42
2023/10/08 10:28:08;;;;;;;6.90;4.40;;;27.40;1.00;;;;;;6306170;22;20354;-45
2023/10/08 10:30:34;;;;;;;10.63;4.83;;;27.60;1.00;;;;;;6306337;22;20841;-42
2023/10/08 10:33:05;;;;;;;8.23;4.97;;;28.00;1.00;;;;;;6277916;22;20485;-43
2023/10/08 10:35:32;;;;;;;9.17;4.70;;;28.70;1.00;;;;;;6278948;22;20409;-46
2023/10/08 10:38:03;;;;;;;7.23;4.00;;;29.40;1.00;;;;;;6306535;22;20521;-44
2023/10/08 10:40:41;;;;;;;6.77;4.37;;;30.00;1.00;;;;;;6279459;22;21010;-45
2023/10/08 10:43:09;;;;;;;6.03;3.80;;;30.30;1.00;;;;;;6280167;22;20789;-42
2023/10/08 10:45:43;;;;;;;7.30;4.00;;;30.70;1.00;;;;;;6275776;22;20413;-41
2023/10/08 10:48:34;;;;;;;9.80;6.13;;;31.00;1.00;;;;;;6301700;22;20543;-42
2023/10/08 10:53:32;;;;;;;8.57;4.50;;;32.00;1.00;;;;;;6302761;22;20360;-42
2023/10/08 10:56:05;;;;;;;9.33;4.43;;;32.70;1.00;;;;;;6305095;22;20389;-43
2023/10/08 10:58:38;;;;;;;10.17;5.00;;;33.30;1.00;;;;;;6304087;22;20356;-44
2023/10/08 11:01:23;;;;;;;6.87;4.50;;;34.10;1.00;;;;;;6303605;22;20393;-41
2023/10/08 11:03:53;;;;;;;6.50;4.77;;;35.00;1.00;;;;;;6304053;22;20350;-42
2023/10/08 11:06:22;;;;;;;7.10;4.17;;;35.90;1.00;;;;;;6277016;22;20364;-43
2023/10/08 11:08:52;;;;;;;6.00;4.10;;;36.70;1.00;;;;;;6303637;22;20360;-43
2023/10/08 11:11:18;;;;;;;5.43;4.07;;;37.50;1.00;;;;;;6303959;22;21049;-43
2023/10/08 11:13:51;;;;;;;6.07;4.40;;;38.10;1.00;;;;;;6302890;22;20425;-43
2023/10/08 11:16:19;;;;;;;8.20;4.93;;;38.40;1.00;;;;;;6303675;22;20356;-43
2023/10/08 11:18:57;;;;;;;7.00;4.60;;;38.00;1.00;;;;;;6302550;22;20430;-43
2023/10/08 11:21:24;;;;;;;7.73;5.23;;;37.20;1.00;;;;;;6276790;22;20843;-44
2023/10/08 11:23:55;;;;;;;8.17;4.53;;;36.60;1.00;;;;;;6305415;22;20507;-44
2023/10/08 11:26:31;;;;;;;8.13;4.80;;;36.20;1.00;;;;;;6305715;22;20397;-42
2023/10/08 11:29:03;;;;;;;7.00;4.80;;;36.00;1.00;;;;;;6301726;22;20399;-43
2023/10/08 11:31:29;;;;;;;8.53;4.53;;;35.90;1.00;;;;;;6303191;22;20417;-44
2023/10/08 11:34:08;;;;;;;5.47;4.30;;;35.70;1.00;;;;;;6305465;22;20467;-42
2023/10/08 11:36:48;;;;;;;7.37;4.17;;;35.40;1.00;;;;;;6302741;22;20354;-45
2023/10/08 11:39:21;;;;;;;8.40;4.53;;;35.00;1.00;;;;;;6251947;22;20463;-43
2023/10/08 11:42:04;;;;;;;6.20;4.43;;;34.70;1.00;;;;;;6304447;22;20436;-42
2023/10/08 11:44:31;;;;;;;6.67;4.80;;;34.50;1.00;;;;;;6306684;22;20386;-44
2023/10/08 11:47:04;;;;;;;5.90;4.47;;;34.60;1.00;;;;;;6255308;22;20373;-42
2023/10/08 11:49:36;;;;;;;7.33;4.37;;;35.20;1.00;;;;;;6303201;22;20382;-44
2023/10/08 11:52:02;;;;;;;8.07;4.30;;;35.80;1.00;;;;;;6304521;22;20354;-42
2023/10/08 11:54:27;;;;;;;8.13;4.40;;;36.60;1.00;;;;;;6303245;22;20401;-47
2023/10/08 11:56:55;;;;;;;10.07;4.97;;;37.20;1.00;;;;;;6303661;22;20793;-42
2023/10/08 11:59:20;;;;;;;5.90;4.60;;;37.90;1.00;;;;;;6274966;22;20155;-42
2023/10/08 12:01:46;;;;;;;6.50;4.63;;;38.60;1.00;;;;;;6303229;22;20472;-43
2023/10/08 12:04:16;;;;;;;12.57;5.63;;;39.00;1.00;;;;;;6304119;22;20159;-42
2023/10/08 12:06:51;;;;;;;6.67;4.23;;;39.20;1.00;;;;;;6304403;22;20128;-42
2023/10/08 12:09:21;;;;;;;8.03;5.03;;;39.60;1.00;;;;;;6303874;22;20365;-42
2023/10/08 12:11:47;;;;;;;6.83;5.47;;;39.80;1.00;;;;;;6303595;22;20481;-42
2023/10/08 12:14:14;;;;;;;8.87;5.43;;;40.10;1.00;;;;;;6304866;22;20422;-40
2023/10/08 12:16:41;;;;;;;8.40;5.80;;;40.30;1.00;;;;;;6303517;22;20385;-42
2023/10/08 12:19:16;;;;;;;6.33;4.50;;;41.40;1.00;;;;;;6305224;22;20430;-42
2023/10/08 12:21:49;;;;;;;7.57;5.20;;;42.60;1.00;;;;;;6304932;22;20407;-41
2023/10/08 12:24:14;;;;;;;5.97;5.37;;;43.90;1.00;;;;;;6305961;22;20421;-41
2023/10/08 12:26:46;;;;;;;9.53;5.10;;;44.70;1.00;;;;;;6305700;22;20390;-41
2023/10/08 12:29:17;;;;;;;7.63;5.30;;;45.10;1.00;;;;;;6305451;22;20151;-41
2023/10/08 12:31:47;;;;;;;9.47;5.60;;;45.40;1.00;;;;;;6304210;22;20428;-43
2023/10/08 12:34:13;;;;;;;7.57;6.13;;;45.90;1.00;;;;;;6304476;22;20778;-42
2023/10/08 12:36:39;;;;;;;8.40;5.00;;;46.60;1.00;;;;;;6304462;22;20385;-45
2023/10/08 12:39:14;;;;;;;7.30;5.80;;;47.40;1.00;;;;;;6305180;22;20378;-41
2023/10/08 12:41:41;;;;;;;11.00;6.00;;;48.10;1.00;;;;;;6304858;22;20152;-44
2023/10/08 12:44:08;;;;;;;8.23;5.53;;;48.80;1.00;;;;;;6304318;22;20430;-42
2023/10/08 12:46:33;;;;;;;7.67;5.63;;;49.40;1.00;;;;;;6305989;22;20825;-42
2023/10/08 12:49:01;;;;;;;8.40;4.80;;;49.50;1.00;;;;;;6306946;22;20386;-42
2023/10/08 12:51:31;;;;;;;7.33;5.40;;;50.00;1.00;;;;;;6306140;22;20803;-43
2023/10/08 12:54:06;;;;;;;7.83;5.33;;;50.30;1.00;;;;;;6278972;22;20398;-40
2023/10/08 12:56:38;;;;;;;8.20;4.97;;;50.50;1.00;;;;;;6306426;22;20385;-44
2023/10/08 12:59:06;;;;;;;9.87;6.00;;;50.70;1.00;;;;;;6305001;22;20385;-42
2023/10/08 13:01:33;;;;;;;6.40;5.57;;;50.50;1.00;;;;;;6306258;22;20350;-41
2023/10/08 13:04:01;;;;;;;6.47;4.90;;;50.50;1.00;;;;;;6306429;22;20429;-42
2023/10/08 13:06:30;;;;;;;7.97;5.47;;;50.50;1.00;;;;;;6306512;22;20382;-42
2023/10/08 13:08:57;;;;;;;7.67;5.83;;;50.50;1.00;;;;;;6307012;22;20374;-41
2023/10/08 13:11:25;;;;;;;9.73;6.20;;;50.40;1.00;;;;;;6305423;22;20480;-39
2023/10/08 13:13:52;;;;;;;8.47;5.70;;;50.40;1.00;;;;;;6305961;22;20359;-41
2023/10/08 13:16:23;;;;;;;11.00;5.90;;;50.20;1.00;;;;;;6305817;22;20523;-42
2023/10/08 13:18:49;;;;;;;8.40;5.80;;;50.30;1.00;;;;;;6273314;22;20431;-42
2023/10/08 13:21:15;;;;;;;8.90;6.00;;;50.00;1.00;;;;;;6273627;22;21004;-41
2023/10/08 13:23:41;;;;;;;9.53;5.30;;;49.70;1.00;;;;;;6272412;22;20469;-42
2023/10/08 13:26:07;;;;;;;9.70;5.90;;;49.70;1.00;;;;;;6273035;22;20149;-44
2023/10/08 13:28:36;;;;;;;9.23;6.90;;;49.60;1.00;;;;;;6273152;22;20348;-41
2023/10/08 13:31:12;;;;;;;9.73;6.03;;;49.40;1.00;;;;;;6271905;22;20148;-40
2023/10/08 13:33:48;;;;;;;11.30;6.20;;;49.30;1.00;;;;;;6274500;22;20383;-41
2023/10/08 13:36:15;;;;;;;7.40;5.37;;;49.10;1.00;;;;;;6272849;22;20382;-40
2023/10/08 13:38:41;;;;;;;7.70;5.40;;;48.90;1.00;;;;;;6276420;22;20387;-39
2023/10/08 13:41:29;;;;;;;8.27;5.90;;;49.10;1.00;;;;;;6272975;22;20386;-40
2023/10/08 13:44:01;;;;;;;7.80;5.73;;;49.20;1.00;;;;;;6274264;22;20499;-41
2023/10/08 13:46:27;;;;;;;7.50;5.93;;;49.30;1.00;;;;;;6275300;22;20359;-42
2023/10/08 13:48:53;;;;;;;8.40;5.77;;;49.50;1.00;;;;;;6273806;22;20841;-42
2023/10/08 13:51:25;;;;;;;10.47;6.23;;;49.30;1.00;;;;;;6273942;22;20602;-41
2023/10/08 13:54:03;;;;;;;10.80;5.53;;;49.10;1.00;;;;;;6273809;22;20152;-42
2023/10/08 13:56:30;;;;;;;10.37;5.67;;;49.00;1.00;;;;;;6273841;22;20386;-42
2023/10/08 13:59:31;;;;;;;11.93;5.83;;;48.80;1.00;;;;;;6273980;22;20406;-39
2023/10/08 14:01:51;;;;;;;7.60;4.63;;;49.00;1.00;;;;;;6271375;22;20449;-40
2023/10/08 14:04:19;;;;;;;9.87;5.90;;;49.20;1.00;;;;;;6275041;22;20483;-39
2023/10/08 14:06:51;;;;;;;8.33;5.43;;;49.20;1.00;;;;;;6274663;22;20406;-41
2023/10/08 14:09:21;;;;;;;8.57;5.30;;;49.30;1.00;;;;;;6274871;22;20387;-39
2023/10/08 14:11:50;;;;;;;10.03;5.10;;;49.30;1.00;;;;;;6272610;22;20387;-40
2023/10/08 14:14:17;;;;;;;9.77;5.23;;;49.30;1.00;;;;;;6274887;22;20417;-40
2023/10/08 14:16:45;;;;;;;11.03;5.43;;;49.30;1.00;;;;;;6273698;22;20359;-39
2023/10/08 14:19:14;;;;;;;10.53;5.20;;;49.30;1.00;;;;;;6292055;22;20426;-39
2023/10/08 14:22:02;;;;;;;12.27;5.87;;;49.30;1.00;;;;;;6279093;22;20658;-40
2023/10/08 14:24:32;;;;;;;8.27;5.87;;;49.20;1.00;;;;;;6306571;22;20422;-38
2023/10/08 14:27:02;;;;;;;6.33;5.03;;;49.10;1.00;;;;;;6305314;22;20686;-40